sensor_id;sensor_type;location;lat;lon;timestamp;pressure;altitude;pressure_sealevel;temperature;humidity
74675;BME280;63200;48.810;12.352;2022-10-13T00:02:09;98089.97;;;9.94;77.94
74675;BME280;63200;48.810;12.352;2022-10-13T00:04:34;98091.91;;;9.94;78.11
74675;BME280;63200;48.810;12.352;2022-10-13T00:07:00;98084.28;;;9.96;78.25
74675;BME280;63200;48.810;12.352;2022-10-13T00:09:25;98015.28;;;9.61;78.30
74675;BME280;63200;48.810;12.352;2022-10-13T00:11:50;98013.91;;;9.58;77.96
74675;BME280;63200;48.810;12.352;2022-10-13T00:14:15;98043.00;;;9.78;78.28
74675;BME280;63200;48.810;12.352;2022-10-13T00:16:41;98054.91;;;9.72;78.30
74675;BME280;63200;48.810;12.352;2022-10-13T00:19:06;98095.69;;;9.93;78.90
74675;BME280;63200;48.810;12.352;2022-10-13T00:21:31;98093.53;;;10.00;78.92
74675;BME280;63200;48.810;12.352;2022-10-13T00:23:57;98038.66;;;9.77;78.42
74675;BME280;63200;48.810;12.352;2022-10-13T00:26:24;98089.50;;;10.08;78.46
74675;BME280;63200;48.810;12.352;2022-10-13T00:28:50;98091.94;;;10.04;78.79
74675;BME280;63200;48.810;12.352;2022-10-13T00:33:40;98050.41;;;10.04;78.26
74675;BME280;63200;48.810;12.352;2022-10-13T00:36:06;98081.13;;;10.25;78.28
74675;BME280;63200;48.810;12.352;2022-10-13T00:38:31;98076.78;;;10.29;78.15
74675;BME280;63200;48.810;12.352;2022-10-13T00:40:56;98086.00;;;10.28;78.40
74675;BME280;63200;48.810;12.352;2022-10-13T00:46:13;98079.81;;;10.32;77.91
74675;BME280;63200;48.810;12.352;2022-10-13T00:48:39;98082.00;;;10.41;77.78
74675;BME280;63200;48.810;12.352;2022-10-13T00:51:06;98062.69;;;10.27;78.10
74675;BME280;63200;48.810;12.352;2022-10-13T00:53:35;98048.53;;;10.14;78.34
74675;BME280;63200;48.810;12.352;2022-10-13T00:56:03;98080.94;;;10.42;78.24
74675;BME280;63200;48.810;12.352;2022-10-13T00:58:29;98057.00;;;10.28;77.81
74675;BME280;63200;48.810;12.352;2022-10-13T01:00:56;98084.19;;;10.49;77.69
74675;BME280;63200;48.810;12.352;2022-10-13T01:03:22;98085.31;;;10.53;78.02
74675;BME280;63200;48.810;12.352;2022-10-13T01:05:49;98086.66;;;10.50;78.04
74675;BME280;63200;48.810;12.352;2022-10-13T01:08:15;98069.16;;;10.15;79.05
74675;BME280;63200;48.810;12.352;2022-10-13T01:10:50;98086.91;;;10.39;78.97
74675;BME280;63200;48.810;12.352;2022-10-13T01:13:30;98037.97;;;10.18;78.00
74675;BME280;63200;48.810;12.352;2022-10-13T01:18:35;98076.28;;;10.37;78.47
74675;BME280;63200;48.810;12.352;2022-10-13T01:21:15;98081.47;;;10.39;78.66
74675;BME280;63200;48.810;12.352;2022-10-13T01:24:00;98079.28;;;10.36;78.66
74675;BME280;63200;48.810;12.352;2022-10-13T01:38:23;98034.97;;;10.20;78.68
74675;BME280;63200;48.810;12.352;2022-10-13T01:41:32;98078.78;;;10.44;78.82
74675;BME280;63200;48.810;12.352;2022-10-13T01:46:29;98055.69;;;10.36;78.63
74675;BME280;63200;48.810;12.352;2022-10-13T01:48:57;98067.41;;;10.57;78.42
74675;BME280;63200;48.810;12.352;2022-10-13T01:51:25;98068.19;;;10.58;78.47
74675;BME280;63200;48.810;12.352;2022-10-13T01:53:52;98033.72;;;10.43;78.23
74675;BME280;63200;48.810;12.352;2022-10-13T01:56:17;98067.41;;;10.62;78.32
74675;BME280;63200;48.810;12.352;2022-10-13T01:58:43;98059.78;;;10.64;77.99
74675;BME280;63200;48.810;12.352;2022-10-13T02:01:39;98063.34;;;10.65;77.82
74675;BME280;63200;48.810;12.352;2022-10-13T02:07:24;98065.47;;;10.53;78.20
74675;BME280;63200;48.810;12.352;2022-10-13T02:12:45;98020.88;;;10.28;78.34
74675;BME280;63200;48.810;12.352;2022-10-13T02:15:17;98057.59;;;10.46;78.21
74675;BME280;63200;48.810;12.352;2022-10-13T02:17:43;98049.72;;;10.39;78.30
74675;BME280;63200;48.810;12.352;2022-10-13T02:20:10;98066.03;;;10.49;78.09
74675;BME280;63200;48.810;12.352;2022-10-13T02:22:40;98064.94;;;10.50;78.17
74675;BME280;63200;48.810;12.352;2022-10-13T02:25:07;98051.63;;;10.39;77.89
74675;BME280;63200;48.810;12.352;2022-10-13T02:27:33;98060.59;;;10.44;78.26
74675;BME280;63200;48.810;12.352;2022-10-13T02:29:58;98058.41;;;10.36;77.97
74675;BME280;63200;48.810;12.352;2022-10-13T02:32:24;98055.94;;;10.34;78.13
74675;BME280;63200;48.810;12.352;2022-10-13T02:34:50;98063.28;;;10.44;78.19
74675;BME280;63200;48.810;12.352;2022-10-13T02:37:15;98055.69;;;10.41;78.29
74675;BME280;63200;48.810;12.352;2022-10-13T02:39:41;98027.41;;;10.22;78.12
74675;BME280;63200;48.810;12.352;2022-10-13T02:42:06;98036.91;;;10.24;78.26
74675;BME280;63200;48.810;12.352;2022-10-13T02:44:32;98069.53;;;10.50;78.20
74675;BME280;63200;48.810;12.352;2022-10-13T02:46:57;98042.66;;;10.43;78.13
74675;BME280;63200;48.810;12.352;2022-10-13T02:49:22;98034.78;;;10.37;78.17
74675;BME280;63200;48.810;12.352;2022-10-13T02:51:48;98059.50;;;10.50;78.54
74675;BME280;63200;48.810;12.352;2022-10-13T02:54:14;98054.31;;;10.49;78.37
74675;BME280;63200;48.810;12.352;2022-10-13T02:56:39;98011.38;;;10.15;78.15
74675;BME280;63200;48.810;12.352;2022-10-13T02:59:04;98052.97;;;10.36;78.14
74675;BME280;63200;48.810;12.352;2022-10-13T03:01:30;98043.72;;;10.32;78.41
74675;BME280;63200;48.810;12.352;2022-10-13T03:03:55;98041.25;;;10.30;78.62
74675;BME280;63200;48.810;12.352;2022-10-13T03:06:21;98035.28;;;10.23;78.36
74675;BME280;63200;48.810;12.352;2022-10-13T03:08:47;98024.09;;;9.99;78.04
74675;BME280;63200;48.810;12.352;2022-10-13T03:11:12;98011.06;;;9.86;78.30
74675;BME280;63200;48.810;12.352;2022-10-13T03:13:37;97997.69;;;9.69;78.11
74675;BME280;63200;48.810;12.352;2022-10-13T03:16:03;98007.19;;;9.76;78.33
74675;BME280;63200;48.810;12.352;2022-10-13T03:18:29;97995.25;;;9.62;78.26
74675;BME280;63200;48.810;12.352;2022-10-13T03:20:56;97993.56;;;9.50;78.01
74675;BME280;63200;48.810;12.352;2022-10-13T03:23:22;98034.31;;;9.71;78.21
74675;BME280;63200;48.810;12.352;2022-10-13T03:25:47;98029.13;;;9.59;77.91
74675;BME280;63200;48.810;12.352;2022-10-13T03:28:12;98040.22;;;9.63;77.87
74675;BME280;63200;48.810;12.352;2022-10-13T03:30:38;98030.44;;;9.52;77.69
74675;BME280;63200;48.810;12.352;2022-10-13T03:33:04;98038.22;;;9.43;77.41
74675;BME280;63200;48.810;12.352;2022-10-13T03:35:29;98037.38;;;9.32;77.38
74675;BME280;63200;48.810;12.352;2022-10-13T03:37:54;98028.06;;;9.17;77.38
74675;BME280;63200;48.810;12.352;2022-10-13T03:40:20;98014.22;;;9.14;77.76
74675;BME280;63200;48.810;12.352;2022-10-13T03:42:45;98023.22;;;9.20;77.58
74675;BME280;63200;48.810;12.352;2022-10-13T03:45:10;98023.16;;;9.09;77.54
74675;BME280;63200;48.810;12.352;2022-10-13T03:47:36;97972.28;;;8.74;77.68
74675;BME280;63200;48.810;12.352;2022-10-13T03:50:02;98032.56;;;9.02;77.89
74675;BME280;63200;48.810;12.352;2022-10-13T03:52:28;97981.19;;;8.74;78.03
74675;BME280;63200;48.810;12.352;2022-10-13T03:54:53;98010.84;;;8.91;78.16
74675;BME280;63200;48.810;12.352;2022-10-13T03:57:19;98009.44;;;8.83;77.98
74675;BME280;63200;48.810;12.352;2022-10-13T03:59:44;98030.63;;;8.97;77.94
74675;BME280;63200;48.810;12.352;2022-10-13T04:02:09;98034.47;;;9.01;77.61
74675;BME280;63200;48.810;12.352;2022-10-13T04:04:36;98033.66;;;9.00;77.88
74675;BME280;63200;48.810;12.352;2022-10-13T04:07:01;98042.59;;;9.01;77.77
74675;BME280;63200;48.810;12.352;2022-10-13T04:09:27;98017.31;;;8.85;78.19
74675;BME280;63200;48.810;12.352;2022-10-13T04:11:52;98046.91;;;9.02;78.15
74675;BME280;63200;48.810;12.352;2022-10-13T04:14:18;98027.38;;;8.95;78.27
74675;BME280;63200;48.810;12.352;2022-10-13T04:16:45;98040.41;;;8.98;78.28
74675;BME280;63200;48.810;12.352;2022-10-13T04:19:12;98049.63;;;9.02;78.69
74675;BME280;63200;48.810;12.352;2022-10-13T04:21:38;97990.06;;;8.64;78.52
74675;BME280;63200;48.810;12.352;2022-10-13T04:24:04;98033.16;;;9.04;78.83
74675;BME280;63200;48.810;12.352;2022-10-13T04:26:33;98037.22;;;9.06;78.47
74675;BME280;63200;48.810;12.352;2022-10-13T04:29:02;97980.06;;;8.65;78.16
74675;BME280;63200;48.810;12.352;2022-10-13T04:31:28;97995.22;;;8.66;78.00
74675;BME280;63200;48.810;12.352;2022-10-13T04:33:53;98023.22;;;8.82;78.53
74675;BME280;63200;48.810;12.352;2022-10-13T04:36:19;98021.84;;;8.79;78.41
74675;BME280;63200;48.810;12.352;2022-10-13T04:38:45;98006.31;;;8.64;78.19
74675;BME280;63200;48.810;12.352;2022-10-13T04:41:12;98024.56;;;8.79;78.39
74675;BME280;63200;48.810;12.352;2022-10-13T04:43:38;98023.41;;;8.70;78.19
74675;BME280;63200;48.810;12.352;2022-10-13T04:46:09;97988.81;;;8.45;78.16
74675;BME280;63200;48.810;12.352;2022-10-13T04:48:35;98036.19;;;8.75;78.49
74675;BME280;63200;48.810;12.352;2022-10-13T04:51:06;98045.94;;;8.76;78.39
74675;BME280;63200;48.810;12.352;2022-10-13T04:53:32;98039.38;;;8.72;78.17
74675;BME280;63200;48.810;12.352;2022-10-13T04:56:03;98050.22;;;8.72;78.31
74675;BME280;63200;48.810;12.352;2022-10-13T04:58:29;98047.78;;;8.70;78.26
74675;BME280;63200;48.810;12.352;2022-10-13T05:00:55;98048.84;;;8.69;78.13
74675;BME280;63200;48.810;12.352;2022-10-13T05:03:22;98025.69;;;8.51;78.16
74675;BME280;63200;48.810;12.352;2022-10-13T05:05:47;98042.34;;;8.70;78.43
74675;BME280;63200;48.810;12.352;2022-10-13T05:08:13;98044.22;;;8.64;78.12
74675;BME280;63200;48.810;12.352;2022-10-13T05:10:38;97994.66;;;8.31;78.29
74675;BME280;63200;48.810;12.352;2022-10-13T05:13:03;98043.09;;;8.60;78.57
74675;BME280;63200;48.810;12.352;2022-10-13T05:15:29;98043.41;;;8.64;79.25
74675;BME280;63200;48.810;12.352;2022-10-13T05:17:54;98032.06;;;8.67;79.20
74675;BME280;63200;48.810;12.352;2022-10-13T05:20:19;98034.53;;;8.74;78.79
74675;BME280;63200;48.810;12.352;2022-10-13T05:22:45;98034.84;;;8.77;78.91
74675;BME280;63200;48.810;12.352;2022-10-13T05:25:10;98042.19;;;8.82;78.80
74675;BME280;63200;48.810;12.352;2022-10-13T05:27:35;98034.63;;;8.84;79.12
74675;BME280;63200;48.810;12.352;2022-10-13T05:30:01;98037.59;;;8.88;79.17
74675;BME280;63200;48.810;12.352;2022-10-13T05:32:26;98044.72;;;8.94;79.12
74675;BME280;63200;48.810;12.352;2022-10-13T05:34:51;98040.41;;;8.98;78.92
74675;BME280;63200;48.810;12.352;2022-10-13T05:37:17;98042.34;;;9.03;78.94
74675;BME280;63200;48.810;12.352;2022-10-13T05:39:43;98041.00;;;9.05;79.05
74675;BME280;63200;48.810;12.352;2022-10-13T05:42:09;98044.00;;;9.09;79.09
74675;BME280;63200;48.810;12.352;2022-10-13T05:44:34;98040.22;;;9.10;79.14
74675;BME280;63200;48.810;12.352;2022-10-13T05:47:00;98042.41;;;9.13;79.04
74675;BME280;63200;48.810;12.352;2022-10-13T05:49:26;98047.84;;;9.13;79.42
74675;BME280;63200;48.810;12.352;2022-10-13T05:51:54;98040.81;;;9.17;79.21
74675;BME280;63200;48.810;12.352;2022-10-13T05:56:52;98047.38;;;9.26;79.10
74675;BME280;63200;48.810;12.352;2022-10-13T05:59:21;98042.50;;;9.28;79.09
74675;BME280;63200;48.810;12.352;2022-10-13T06:01:49;98053.09;;;9.35;79.27
74675;BME280;63200;48.810;12.352;2022-10-13T06:04:22;98044.72;;;9.42;79.15
74675;BME280;63200;48.810;12.352;2022-10-13T06:06:49;98041.75;;;9.38;78.99
74675;BME280;63200;48.810;12.352;2022-10-13T06:09:14;98024.88;;;9.26;78.94
74675;BME280;63200;48.810;12.352;2022-10-13T06:11:40;98001.00;;;9.23;79.19
74675;BME280;63200;48.810;12.352;2022-10-13T06:14:06;98050.22;;;9.57;78.84
74675;BME280;63200;48.810;12.352;2022-10-13T06:16:33;98059.47;;;9.61;78.94
74675;BME280;63200;48.810;12.352;2022-10-13T06:18:59;98060.31;;;9.67;78.75
74675;BME280;63200;48.810;12.352;2022-10-13T06:21:24;98059.78;;;9.70;78.65
74675;BME280;63200;48.810;12.352;2022-10-13T06:23:50;98054.38;;;9.70;78.85
74675;BME280;63200;48.810;12.352;2022-10-13T06:26:15;98052.75;;;9.74;78.71
74675;BME280;63200;48.810;12.352;2022-10-13T06:28:41;98042.19;;;9.78;78.70
74675;BME280;63200;48.810;12.352;2022-10-13T06:31:06;98045.19;;;9.81;78.47
74675;BME280;63200;48.810;12.352;2022-10-13T06:33:32;98047.91;;;9.87;78.81
74675;BME280;63200;48.810;12.352;2022-10-13T06:36:03;98040.63;;;9.97;78.58
74675;BME280;63200;48.810;12.352;2022-10-13T06:38:30;98042.53;;;10.02;78.94
74675;BME280;63200;48.810;12.352;2022-10-13T06:41:02;98040.38;;;10.09;78.96
74675;BME280;63200;48.810;12.352;2022-10-13T06:43:28;98041.50;;;10.08;78.85
74675;BME280;63200;48.810;12.352;2022-10-13T06:45:57;98039.56;;;10.09;78.90
74675;BME280;63200;48.810;12.352;2022-10-13T06:48:23;98048.88;;;10.33;78.83
74675;BME280;63200;48.810;12.352;2022-10-13T06:50:48;98023.59;;;10.33;78.46
74675;BME280;63200;48.810;12.352;2022-10-13T06:53:14;98042.41;;;10.55;78.58
74675;BME280;63200;48.810;12.352;2022-10-13T06:55:40;98056.81;;;10.56;78.61
74675;BME280;63200;48.810;12.352;2022-10-13T06:58:07;98046.75;;;10.61;78.46
74675;BME280;63200;48.810;12.352;2022-10-13T07:00:32;98048.38;;;10.67;78.42
74675;BME280;63200;48.810;12.352;2022-10-13T07:02:58;98051.09;;;10.78;78.41
74675;BME280;63200;48.810;12.352;2022-10-13T07:05:23;98042.94;;;10.83;78.35
74675;BME280;63200;48.810;12.352;2022-10-13T07:07:51;98053.53;;;10.95;78.30
74675;BME280;63200;48.810;12.352;2022-10-13T07:10:18;98053.25;;;10.96;78.23
74675;BME280;63200;48.810;12.352;2022-10-13T07:12:43;98050.81;;;11.05;78.13
74675;BME280;63200;48.810;12.352;2022-10-13T07:15:09;98010.63;;;10.87;78.04
74675;BME280;63200;48.810;12.352;2022-10-13T07:17:34;98029.59;;;11.07;78.15
74675;BME280;63200;48.810;12.352;2022-10-13T07:20:00;98028.00;;;11.11;77.96
74675;BME280;63200;48.810;12.352;2022-10-13T07:22:26;98014.41;;;11.01;78.18
74675;BME280;63200;48.810;12.352;2022-10-13T07:24:52;98036.09;;;11.16;78.24
74675;BME280;63200;48.810;12.352;2022-10-13T07:27:17;98045.38;;;11.21;78.25
74675;BME280;63200;48.810;12.352;2022-10-13T07:29:42;98041.53;;;11.22;78.37
74675;BME280;63200;48.810;12.352;2022-10-13T07:32:08;98017.38;;;11.10;78.11
74675;BME280;63200;48.810;12.352;2022-10-13T07:34:33;98036.94;;;11.17;77.98
74675;BME280;63200;48.810;12.352;2022-10-13T07:36:58;98011.69;;;11.06;78.11
74675;BME280;63200;48.810;12.352;2022-10-13T07:39:24;98029.88;;;11.21;78.20
74675;BME280;63200;48.810;12.352;2022-10-13T07:41:49;98038.28;;;11.25;78.24
74675;BME280;63200;48.810;12.352;2022-10-13T07:44:14;98032.00;;;11.29;78.19
74675;BME280;63200;48.810;12.352;2022-10-13T07:46:40;98035.56;;;11.30;78.05
74675;BME280;63200;48.810;12.352;2022-10-13T07:49:05;98026.28;;;11.36;78.18
74675;BME280;63200;48.810;12.352;2022-10-13T07:51:31;98015.69;;;11.34;77.93
74675;BME280;63200;48.810;12.352;2022-10-13T07:53:56;98031.97;;;11.55;77.86
74675;BME280;63200;48.810;12.352;2022-10-13T07:56:21;98028.38;;;11.70;77.72
74675;BME280;63200;48.810;12.352;2022-10-13T07:58:47;98021.22;;;11.84;77.46
74675;BME280;63200;48.810;12.352;2022-10-13T08:01:13;98020.94;;;11.96;77.19
74675;BME280;63200;48.810;12.352;2022-10-13T08:03:39;98020.91;;;12.02;76.81
74675;BME280;63200;48.810;12.352;2022-10-13T08:06:05;97988.56;;;11.90;76.85
74675;BME280;63200;48.810;12.352;2022-10-13T08:08:31;98020.25;;;12.20;76.73
74675;BME280;63200;48.810;12.352;2022-10-13T08:11:05;98012.06;;;12.25;76.23
74675;BME280;63200;48.810;12.352;2022-10-13T08:13:31;98013.47;;;12.18;76.20
74675;BME280;63200;48.810;12.352;2022-10-13T08:16:01;98013.91;;;12.30;76.33
74675;BME280;63200;48.810;12.352;2022-10-13T08:18:27;98016.31;;;12.37;76.25
74675;BME280;63200;48.810;12.352;2022-10-13T08:20:53;98018.19;;;12.46;75.88
74675;BME280;63200;48.810;12.352;2022-10-13T08:23:18;98007.75;;;12.54;75.81
74675;BME280;63200;48.810;12.352;2022-10-13T08:25:44;98012.00;;;12.70;75.36
74675;BME280;63200;48.810;12.352;2022-10-13T08:28:24;98007.28;;;12.81;74.90
74675;BME280;63200;48.810;12.352;2022-10-13T08:30:58;98004.47;;;12.91;74.97
74675;BME280;63200;48.810;12.352;2022-10-13T08:33:24;97996.75;;;12.98;74.96
74675;BME280;63200;48.810;12.352;2022-10-13T08:35:50;97992.34;;;13.03;74.43
74675;BME280;63200;48.810;12.352;2022-10-13T08:38:16;97997.84;;;12.97;74.91
74675;BME280;63200;48.810;12.352;2022-10-13T08:40:48;97968.31;;;12.80;74.47
74675;BME280;63200;48.810;12.352;2022-10-13T08:43:16;97994.31;;;12.97;74.43
74675;BME280;63200;48.810;12.352;2022-10-13T08:45:43;98003.63;;;12.91;74.60
74675;BME280;63200;48.810;12.352;2022-10-13T08:48:15;98003.34;;;12.92;74.59
74675;BME280;63200;48.810;12.352;2022-10-13T08:50:46;97978.41;;;12.80;74.74
74675;BME280;63200;48.810;12.352;2022-10-13T08:53:18;98002.44;;;13.02;74.45
74675;BME280;63200;48.810;12.352;2022-10-13T08:55:55;97996.13;;;13.07;74.21
74675;BME280;63200;48.810;12.352;2022-10-13T08:58:27;97999.53;;;13.17;73.76
74675;BME280;63200;48.810;12.352;2022-10-13T09:01:05;98010.84;;;13.35;73.96
74675;BME280;63200;48.810;12.352;2022-10-13T09:03:46;97989.72;;;13.22;74.41
74675;BME280;63200;48.810;12.352;2022-10-13T09:09:04;98010.59;;;13.07;73.63
74675;BME280;63200;48.810;12.352;2022-10-13T09:11:30;98016.19;;;13.16;74.25
74675;BME280;63200;48.810;12.352;2022-10-13T09:14:00;97981.88;;;12.86;74.44
74675;BME280;63200;48.810;12.352;2022-10-13T09:16:36;98009.41;;;13.13;74.38
74675;BME280;63200;48.810;12.352;2022-10-13T09:21:40;98002.66;;;13.35;73.71
74675;BME280;63200;48.810;12.352;2022-10-13T09:24:10;97986.59;;;13.33;73.13
74675;BME280;63200;48.810;12.352;2022-10-13T09:26:38;98008.53;;;13.47;72.55
74675;BME280;63200;48.810;12.352;2022-10-13T09:29:14;98001.16;;;13.48;73.10
74675;BME280;63200;48.810;12.352;2022-10-13T09:31:40;98000.34;;;13.47;72.91
74675;BME280;63200;48.810;12.352;2022-10-13T09:39:20;97977.44;;;13.48;72.60
74675;BME280;63200;48.810;12.352;2022-10-13T09:41:46;97994.72;;;13.63;71.68
74675;BME280;63200;48.810;12.352;2022-10-13T09:44:13;97998.19;;;13.69;71.70
74675;BME280;63200;48.810;12.352;2022-10-13T09:46:50;97993.13;;;13.81;71.35
74675;BME280;63200;48.810;12.352;2022-10-13T09:49:36;97991.34;;;13.90;71.32
74675;BME280;63200;48.810;12.352;2022-10-13T09:59:48;97987.63;;;14.05;70.33
74675;BME280;63200;48.810;12.352;2022-10-13T10:02:26;97990.78;;;14.12;70.37
74675;BME280;63200;48.810;12.352;2022-10-13T10:04:57;97934.94;;;13.86;70.04
74675;BME280;63200;48.810;12.352;2022-10-13T10:07:26;97996.72;;;14.20;70.70
74675;BME280;63200;48.810;12.352;2022-10-13T10:09:56;97988.22;;;14.21;69.88
74675;BME280;63200;48.810;12.352;2022-10-13T10:12:25;97987.00;;;14.27;69.83
74675;BME280;63200;48.810;12.352;2022-10-13T10:14:53;97980.16;;;14.30;69.71
74675;BME280;63200;48.810;12.352;2022-10-13T10:17:44;97990.03;;;14.45;69.50
74675;BME280;63200;48.810;12.352;2022-10-13T10:23:41;97966.59;;;14.58;68.49
74675;BME280;63200;48.810;12.352;2022-10-13T10:28:45;97978.81;;;14.27;68.68
74675;BME280;63200;48.810;12.352;2022-10-13T10:34:00;97979.25;;;14.15;68.99
74675;BME280;63200;48.810;12.352;2022-10-13T10:36:39;97983.75;;;14.06;69.59
74675;BME280;63200;48.810;12.352;2022-10-13T10:39:16;97947.84;;;13.99;69.12
74675;BME280;63200;48.810;12.352;2022-10-13T10:44:47;97953.59;;;14.36;68.26
74675;BME280;63200;48.810;12.352;2022-10-13T10:47:24;97950.13;;;14.63;67.73
74675;BME280;63200;48.810;12.352;2022-10-13T10:49:56;97942.63;;;14.88;66.62
74675;BME280;63200;48.810;12.352;2022-10-13T10:52:32;97948.00;;;14.93;66.17
74675;BME280;63200;48.810;12.352;2022-10-13T10:55:16;97941.72;;;14.92;67.00
74675;BME280;63200;48.810;12.352;2022-10-13T11:13:57;97925.00;;;15.08;66.26
74675;BME280;63200;48.810;12.352;2022-10-13T11:37:43;97887.03;;;15.85;62.43
74675;BME280;63200;48.810;12.352;2022-10-13T11:43:15;97849.16;;;16.01;61.77
74675;BME280;63200;48.810;12.352;2022-10-13T11:52:06;97873.88;;;16.32;60.65
74675;BME280;63200;48.810;12.352;2022-10-13T11:54:51;97871.09;;;16.23;59.95
74675;BME280;63200;48.810;12.352;2022-10-13T11:57:22;97864.53;;;16.10;58.64
74675;BME280;63200;48.810;12.352;2022-10-13T11:59:49;97838.41;;;15.81;60.34
74675;BME280;63200;48.810;12.352;2022-10-13T12:02:18;97852.53;;;15.97;61.08
74675;BME280;63200;48.810;12.352;2022-10-13T12:05:02;97858.81;;;15.98;60.51
74675;BME280;63200;48.810;12.352;2022-10-13T12:07:33;97853.72;;;16.05;61.26
74675;BME280;63200;48.810;12.352;2022-10-13T12:10:02;97845.31;;;16.02;60.91
74675;BME280;63200;48.810;12.352;2022-10-13T12:12:28;97853.47;;;15.93;61.35
74675;BME280;63200;48.810;12.352;2022-10-13T12:14:55;97817.91;;;15.42;61.54
74675;BME280;63200;48.810;12.352;2022-10-13T12:19:51;97842.72;;;15.60;61.74
74675;BME280;63200;48.810;12.352;2022-10-13T12:22:17;97853.09;;;15.72;61.86
74675;BME280;63200;48.810;12.352;2022-10-13T12:24:42;97790.16;;;15.35;60.66
74675;BME280;63200;48.810;12.352;2022-10-13T12:27:20;97852.97;;;15.77;61.03
74675;BME280;63200;48.810;12.352;2022-10-13T12:29:45;97835.66;;;15.81;62.45
74675;BME280;63200;48.810;12.352;2022-10-13T12:32:27;97834.91;;;15.90;60.34
74675;BME280;63200;48.810;12.352;2022-10-13T12:34:53;97828.06;;;16.01;61.45
74675;BME280;63200;48.810;12.352;2022-10-13T12:37:29;97831.84;;;16.14;60.61
74675;BME280;63200;48.810;12.352;2022-10-13T12:39:58;97831.13;;;16.22;60.47
74675;BME280;63200;48.810;12.352;2022-10-13T12:42:27;97818.00;;;16.42;59.61
74675;BME280;63200;48.810;12.352;2022-10-13T12:44:53;97816.78;;;16.57;60.32
74675;BME280;63200;48.810;12.352;2022-10-13T12:47:39;97785.00;;;16.56;60.69
74675;BME280;63200;48.810;12.352;2022-10-13T12:53:27;97820.63;;;16.87;58.38
74675;BME280;63200;48.810;12.352;2022-10-13T12:55:56;97809.72;;;16.64;57.74
74675;BME280;63200;48.810;12.352;2022-10-13T12:58:28;97809.41;;;16.75;58.93
74675;BME280;63200;48.810;12.352;2022-10-13T13:03:39;97810.25;;;16.75;58.81
74675;BME280;63200;48.810;12.352;2022-10-13T13:06:30;97800.75;;;16.81;57.52
74675;BME280;63200;48.810;12.352;2022-10-13T13:11:33;97794.63;;;16.85;58.27
74675;BME280;63200;48.810;12.352;2022-10-13T13:17:29;97794.78;;;16.79;58.70
74675;BME280;63200;48.810;12.352;2022-10-13T13:19:54;97792.03;;;16.79;58.43
74675;BME280;63200;48.810;12.352;2022-10-13T13:22:20;97762.75;;;16.57;58.91
74675;BME280;63200;48.810;12.352;2022-10-13T13:24:46;97795.25;;;16.73;59.03
74675;BME280;63200;48.810;12.352;2022-10-13T13:27:36;97775.16;;;16.46;58.57
74675;BME280;63200;48.810;12.352;2022-10-13T13:30:09;97777.50;;;16.30;58.89
74675;BME280;63200;48.810;12.352;2022-10-13T13:32:35;97789.00;;;16.41;59.18
74675;BME280;63200;48.810;12.352;2022-10-13T13:35:00;97787.50;;;16.35;59.35
74675;BME280;63200;48.810;12.352;2022-10-13T13:37:29;97788.28;;;16.26;59.02
74675;BME280;63200;48.810;12.352;2022-10-13T13:39:56;97780.97;;;16.22;59.90
74675;BME280;63200;48.810;12.352;2022-10-13T13:42:22;97781.75;;;16.13;59.21
74675;BME280;63200;48.810;12.352;2022-10-13T13:44:47;97788.84;;;16.14;59.57
74675;BME280;63200;48.810;12.352;2022-10-13T13:49:43;97785.72;;;16.07;59.53
74675;BME280;63200;48.810;12.352;2022-10-13T13:52:08;97778.59;;;15.97;59.93
74675;BME280;63200;48.810;12.352;2022-10-13T13:54:34;97773.25;;;15.92;60.93
74675;BME280;63200;48.810;12.352;2022-10-13T13:56:59;97748.38;;;15.66;60.22
74675;BME280;63200;48.810;12.352;2022-10-13T13:59:24;97768.63;;;15.79;60.90
74675;BME280;63200;48.810;12.352;2022-10-13T14:01:50;97767.50;;;15.80;60.87
74675;BME280;63200;48.810;12.352;2022-10-13T14:04:15;97771.34;;;15.79;60.76
74675;BME280;63200;48.810;12.352;2022-10-13T14:06:40;97771.47;;;15.88;61.39
74675;BME280;63200;48.810;12.352;2022-10-13T14:09:05;97762.59;;;15.91;61.07
74675;BME280;63200;48.810;12.352;2022-10-13T14:11:31;97743.44;;;15.68;61.19
74675;BME280;63200;48.810;12.352;2022-10-13T14:13:57;97731.66;;;15.68;60.82
74675;BME280;63200;48.810;12.352;2022-10-13T14:16:26;97753.88;;;15.89;60.97
74675;BME280;63200;48.810;12.352;2022-10-13T14:18:52;97759.63;;;16.01;61.24
74675;BME280;63200;48.810;12.352;2022-10-13T14:21:17;97758.69;;;15.83;59.94
74675;BME280;63200;48.810;12.352;2022-10-13T14:23:42;97752.97;;;15.93;60.85
74675;BME280;63200;48.810;12.352;2022-10-13T14:26:11;97757.81;;;15.96;60.27
74675;BME280;63200;48.810;12.352;2022-10-13T14:28:39;97741.25;;;15.79;60.38
74675;BME280;63200;48.810;12.352;2022-10-13T14:31:06;97765.78;;;15.84;60.51
74675;BME280;63200;48.810;12.352;2022-10-13T14:33:31;97728.38;;;15.57;60.84
74675;BME280;63200;48.810;12.352;2022-10-13T14:36:01;97730.78;;;15.58;61.69
74675;BME280;63200;48.810;12.352;2022-10-13T14:38:27;97758.91;;;15.73;61.47
74675;BME280;63200;48.810;12.352;2022-10-13T14:40:58;97747.78;;;15.69;62.05
74675;BME280;63200;48.810;12.352;2022-10-13T14:43:24;97725.75;;;15.29;61.46
74675;BME280;63200;48.810;12.352;2022-10-13T14:45:49;97764.13;;;15.60;61.72
74675;BME280;63200;48.810;12.352;2022-10-13T14:48:14;97760.88;;;15.58;61.47
74675;BME280;63200;48.810;12.352;2022-10-13T14:50:40;97754.75;;;15.53;62.56
74675;BME280;63200;48.810;12.352;2022-10-13T14:53:05;97754.28;;;15.37;62.07
74675;BME280;63200;48.810;12.352;2022-10-13T14:55:33;97750.16;;;15.25;62.21
74675;BME280;63200;48.810;12.352;2022-10-13T14:57:59;97732.38;;;15.14;62.36
74675;BME280;63200;48.810;12.352;2022-10-13T15:00:24;97744.53;;;15.08;61.80
74675;BME280;63200;48.810;12.352;2022-10-13T15:02:49;97764.09;;;15.15;62.17